Time;durP1;ratioP1;P1;durP2;ratioP2;P2;SDS_P1;SDS_P2;PMS_P1;PMS_P2;Temp;Humidity;BMP_temperature;BMP_pressure;BME280_temperature;BME280_humidity;BME280_pressure;Samples;Min_cycle;Max_cycle;Signal;HPM_P1;HPM_P2
2021/12/31 00:01:18;;;;;;;4.40;0.97;;;27.10;49.00;;;;;;5071583;28;20651;-73
2021/12/31 00:03:45;;;;;;;2.07;0.80;;;27.10;48.80;;;;;;5077643;28;20266;-74
2021/12/31 00:06:12;;;;;;;4.60;2.30;;;27.00;50.00;;;;;;5070159;28;20245;-74
2021/12/31 00:08:40;;;;;;;2.93;1.03;;;27.20;49.70;;;;;;5069826;28;20577;-73
2021/12/31 00:11:07;;;;;;;6.60;2.37;;;27.30;49.90;;;;;;5070356;28;20534;-74
2021/12/31 00:13:34;;;;;;;3.17;0.90;;;27.50;49.60;;;;;;5071649;28;20190;-74
2021/12/31 00:16:02;;;;;;;2.57;0.50;;;27.80;48.20;;;;;;5071371;28;20273;-72
2021/12/31 00:18:29;;;;;;;3.83;0.60;;;27.60;48.40;;;;;;5071565;28;20179;-75
2021/12/31 00:20:56;;;;;;;3.30;1.60;;;27.80;49.20;;;;;;5073958;28;20175;-74
2021/12/31 00:23:26;;;;;;;1.67;1.17;;;28.00;48.70;;;;;;5075257;28;20202;-75
2021/12/31 00:25:55;;;;;;;2.87;1.90;;;28.10;48.30;;;;;;5075061;28;20187;-73
2021/12/31 00:28:22;;;;;;;2.93;0.90;;;27.80;49.30;;;;;;5072177;28;20175;-72
2021/12/31 00:30:54;;;;;;;3.63;0.80;;;27.90;50.40;;;;;;5075514;28;20660;-73
2021/12/31 00:33:24;;;;;;;2.67;1.60;;;27.90;49.30;;;;;;5075096;28;20183;-75
2021/12/31 00:35:52;;;;;;;5.67;1.33;;;27.90;49.40;;;;;;5077609;28;20184;-79
2021/12/31 00:38:20;;;;;;;4.87;2.00;;;27.90;48.80;;;;;;5075116;28;20234;-75
2021/12/31 00:40:47;;;;;;;2.43;1.10;;;27.70;50.40;;;;;;5073668;28;20198;-73
2021/12/31 00:43:14;;;;;;;4.20;0.90;;;28.00;50.10;;;;;;5074533;28;20215;-75
2021/12/31 00:45:43;;;;;;;2.73;2.27;;;28.10;49.90;;;;;;5073572;28;20183;-74
2021/12/31 00:48:12;;;;;;;4.23;1.20;;;28.00;48.70;;;;;;5074149;28;20179;-74
2021/12/31 00:50:40;;;;;;;3.13;1.30;;;27.90;49.00;;;;;;5073007;28;20698;-79
2021/12/31 00:53:08;;;;;;;3.60;1.53;;;28.20;48.80;;;;;;5074461;28;20244;-75
2021/12/31 00:55:36;;;;;;;3.63;1.03;;;28.10;48.30;;;;;;5073716;28;20179;-74
2021/12/31 00:58:05;;;;;;;4.83;0.90;;;27.90;49.40;;;;;;5074600;28;20521;-75
2021/12/31 01:00:33;;;;;;;2.93;0.80;;;28.10;49.50;;;;;;5074200;28;20266;-75
2021/12/31 01:03:01;;;;;;;3.20;1.20;;;28.30;48.50;;;;;;5069400;28;20210;-76
2021/12/31 01:05:28;;;;;;;2.97;0.77;;;28.20;48.20;;;;;;5072234;28;20210;-81
2021/12/31 01:07:56;;;;;;;1.63;0.70;;;28.40;47.40;;;;;;5071217;28;20187;-75
2021/12/31 01:10:26;;;;;;;2.43;0.90;;;28.20;47.20;;;;;;5071592;28;20222;-79
2021/12/31 01:12:54;;;;;;;2.23;1.00;;;28.30;47.60;;;;;;5073205;28;20261;-81
2021/12/31 01:15:38;;;;;;;1.77;1.00;;;28.10;48.30;;;;;;5071972;28;20179;-73
2021/12/31 01:20:37;;;;;;;2.20;0.80;;;28.30;49.40;;;;;;5069164;28;20199;-75
2021/12/31 01:23:08;;;;;;;2.47;0.80;;;28.40;49.40;;;;;;5071595;28;20191;-79
2021/12/31 01:25:36;;;;;;;4.50;1.50;;;28.40;48.70;;;;;;5072145;28;20209;-74
2021/12/31 01:28:05;;;;;;;2.53;0.60;;;28.40;48.70;;;;;;5072060;28;20707;-82
2021/12/31 01:30:32;;;;;;;2.37;0.80;;;28.20;49.00;;;;;;5071713;28;20642;-76
2021/12/31 01:33:00;;;;;;;2.93;0.80;;;28.10;49.30;;;;;;5072029;28;20670;-77
2021/12/31 01:35:27;;;;;;;4.43;1.10;;;28.10;49.90;;;;;;5070262;28;20190;-76
2021/12/31 01:37:55;;;;;;;3.47;1.13;;;28.30;49.90;;;;;;5073766;28;20266;-77
2021/12/31 01:40:23;;;;;;;4.40;0.87;;;28.30;49.20;;;;;;5070905;28;20210;-76
2021/12/31 01:42:52;;;;;;;6.47;0.90;;;28.30;49.10;;;;;;5074212;28;20183;-74
2021/12/31 01:45:24;;;;;;;2.53;0.60;;;28.10;49.70;;;;;;5070029;28;20691;-77
2021/12/31 01:50:24;;;;;;;2.00;0.93;;;28.50;49.30;;;;;;5066671;28;20188;-80
2021/12/31 01:52:52;;;;;;;1.63;0.80;;;28.50;49.40;;;;;;5061431;28;20205;-76
2021/12/31 01:55:21;;;;;;;5.53;1.00;;;28.40;49.80;;;;;;5074515;28;20208;-79
2021/12/31 01:57:49;;;;;;;5.50;1.13;;;28.60;49.40;;;;;;5072686;28;20265;-78
2021/12/31 02:00:16;;;;;;;4.27;0.80;;;28.70;49.50;;;;;;5072156;28;20179;-80
2021/12/31 02:02:45;;;;;;;1.97;0.70;;;28.80;48.70;;;;;;5074053;28;20270;-75
2021/12/31 02:05:13;;;;;;;2.70;1.20;;;28.60;49.10;;;;;;5066889;28;20302;-75
2021/12/31 02:07:41;;;;;;;2.83;0.97;;;29.00;47.90;;;;;;5071359;28;20191;-75
2021/12/31 02:10:09;;;;;;;2.43;0.70;;;28.40;49.60;;;;;;5062962;28;20183;-78
2021/12/31 02:12:45;;;;;;;2.10;0.80;;;29.20;48.20;;;;;;5069724;28;20187;-79
2021/12/31 02:15:14;;;;;;;5.90;1.10;;;28.80;49.00;;;;;;5068384;28;20182;-73
2021/12/31 02:17:44;;;;;;;2.07;0.90;;;28.80;48.70;;;;;;5070435;28;20180;-77
2021/12/31 02:20:12;;;;;;;4.93;1.00;;;28.60;49.80;;;;;;5069473;28;20186;-75
2021/12/31 02:22:43;;;;;;;2.00;0.80;;;29.10;49.00;;;;;;5070175;28;20226;-77
2021/12/31 02:25:11;;;;;;;3.30;0.60;;;28.90;48.60;;;;;;5067491;28;20223;-78
2021/12/31 02:27:40;;;;;;;1.73;0.60;;;28.60;49.80;;;;;;5067029;28;20186;-78
2021/12/31 02:30:10;;;;;;;2.43;1.00;;;28.70;49.50;;;;;;5068283;28;20248;-77
2021/12/31 02:32:37;;;;;;;1.73;0.70;;;28.90;48.40;;;;;;5067118;28;20711;-81
2021/12/31 02:35:08;;;;;;;3.17;1.10;;;29.30;48.10;;;;;;5070965;28;20589;-78
2021/12/31 02:37:35;;;;;;;3.00;0.90;;;29.00;48.70;;;;;;5069378;28;20231;-83
2021/12/31 02:40:05;;;;;;;1.63;0.60;;;28.90;49.30;;;;;;5069395;28;20214;-77
2021/12/31 02:42:34;;;;;;;1.58;0.70;;;28.80;49.20;;;;;;5070664;28;20195;-76
2021/12/31 02:45:02;;;;;;;1.53;0.70;;;29.20;49.50;;;;;;5068215;28;20306;-75
2021/12/31 02:47:30;;;;;;;2.03;0.70;;;29.20;49.30;;;;;;5073657;28;20210;-74
2021/12/31 02:50:05;;;;;;;2.80;0.80;;;29.30;48.10;;;;;;5065728;28;20183;-77
2021/12/31 02:52:33;;;;;;;3.37;1.03;;;29.50;48.20;;;;;;5074139;28;20235;-79
2021/12/31 02:55:02;;;;;;;3.27;0.73;;;29.60;48.30;;;;;;5071768;28;20195;-79
2021/12/31 02:57:29;;;;;;;2.23;0.70;;;29.00;49.90;;;;;;5071827;28;20245;-76
2021/12/31 02:59:57;;;;;;;2.20;0.70;;;29.50;47.90;;;;;;5072976;28;20252;-78
2021/12/31 03:02:26;;;;;;;1.77;0.70;;;29.30;47.70;;;;;;5074552;28;20187;-78
2021/12/31 03:04:54;;;;;;;3.67;0.70;;;29.70;47.50;;;;;;5083579;28;20207;-82
2021/12/31 03:07:23;;;;;;;2.53;0.70;;;29.90;47.10;;;;;;5076916;28;20180;-78
2021/12/31 03:09:52;;;;;;;2.87;0.83;;;29.80;47.50;;;;;;5080851;28;20596;-81
2021/12/31 03:12:20;;;;;;;1.90;0.60;;;29.30;48.80;;;;;;5077924;28;20184;-77
2021/12/31 03:14:49;;;;;;;2.80;0.70;;;29.30;49.40;;;;;;5073055;28;20222;-80
2021/12/31 03:17:18;;;;;;;5.93;1.13;;;29.30;49.00;;;;;;5080531;28;20170;-78
2021/12/31 03:19:46;;;;;;;3.03;0.67;;;28.70;50.70;;;;;;5076798;28;20637;-81
2021/12/31 03:22:14;;;;;;;7.60;0.70;;;28.90;50.90;;;;;;5075440;28;20182;-76
2021/12/31 03:24:41;;;;;;;3.83;0.80;;;28.80;52.00;;;;;;5074655;28;20215;-80
2021/12/31 03:27:08;;;;;;;1.70;0.70;;;28.90;51.80;;;;;;5070507;28;20814;-77
2021/12/31 03:29:36;;;;;;;2.90;0.90;;;29.30;51.30;;;;;;5072128;28;20210;-80
2021/12/31 03:32:03;;;;;;;5.93;1.20;;;29.40;50.20;;;;;;5080935;28;20186;-77
2021/12/31 03:34:31;;;;;;;6.80;1.30;;;29.20;51.00;;;;;;5078107;28;20175;-79
2021/12/31 03:36:58;;;;;;;3.97;1.10;;;29.00;51.10;;;;;;5070428;28;20223;-87
2021/12/31 03:39:25;;;;;;;4.47;1.10;;;28.90;50.50;;;;;;5070081;28;20641;-82
2021/12/31 03:41:55;;;;;;;2.70;0.90;;;29.00;50.60;;;;;;5069325;28;20180;-77
2021/12/31 03:44:23;;;;;;;3.40;0.70;;;29.30;49.10;;;;;;5073872;28;20218;-78
2021/12/31 03:46:50;;;;;;;3.20;0.60;;;29.40;49.10;;;;;;5065606;28;20179;-83
2021/12/31 03:49:17;;;;;;;2.50;0.63;;;29.50;47.90;;;;;;5084535;28;20186;-77
2021/12/31 03:51:45;;;;;;;1.70;0.67;;;29.70;48.30;;;;;;5070254;28;20530;-79
2021/12/31 03:54:12;;;;;;;3.80;1.03;;;29.40;49.40;;;;;;5071495;28;20175;-78
2021/12/31 03:56:39;;;;;;;3.92;0.90;;;29.00;49.10;;;;;;5077820;28;20191;-81
2021/12/31 03:59:07;;;;;;;0.95;0.55;;;29.60;49.90;;;;;;5077050;28;20187;-76
2021/12/31 04:01:34;;;;;;;4.15;0.65;;;29.90;48.60;;;;;;5075764;28;20510;-79
2021/12/31 04:04:01;;;;;;;2.47;0.80;;;29.60;49.90;;;;;;5080044;28;20285;-86
2021/12/31 04:06:29;;;;;;;7.53;1.20;;;29.80;49.60;;;;;;5079506;28;20182;-80
2021/12/31 04:08:56;;;;;;;6.05;1.00;;;30.10;48.20;;;;;;5076900;28;20183;-85
2021/12/31 04:11:23;;;;;;;3.88;0.75;;;29.90;48.80;;;;;;5077739;28;20342;-80
2021/12/31 04:13:53;;;;;;;4.03;0.68;;;29.90;48.50;;;;;;5082601;28;20258;-83
2021/12/31 04:16:21;;;;;;;3.67;0.77;;;29.50;50.10;;;;;;5075467;28;20183;-78
2021/12/31 04:18:51;;;;;;;3.60;0.73;;;29.30;50.10;;;;;;5075587;28;20182;-78
2021/12/31 04:21:20;;;;;;;3.13;0.70;;;29.00;51.10;;;;;;5074857;28;20217;-80
2021/12/31 04:23:52;;;;;;;5.17;0.90;;;29.80;50.00;;;;;;5070455;28;20218;-81
2021/12/31 04:26:20;;;;;;;3.85;0.80;;;30.10;48.60;;;;;;5072431;28;20188;-76
2021/12/31 04:28:47;;;;;;;2.80;0.88;;;29.90;48.00;;;;;;5075600;28;20187;-81
2021/12/31 04:31:15;;;;;;;6.53;1.33;;;29.80;49.00;;;;;;5074937;28;20544;-78
2021/12/31 04:33:42;;;;;;;3.65;1.00;;;29.90;49.60;;;;;;5076895;28;20229;-79
2021/12/31 04:36:10;;;;;;;5.80;1.02;;;29.40;50.70;;;;;;5074951;28;20677;-81
2021/12/31 04:38:38;;;;;;;3.50;0.75;;;29.50;50.30;;;;;;5075695;28;20545;-81
2021/12/31 04:41:07;;;;;;;4.45;0.95;;;29.80;49.60;;;;;;5075478;28;20175;-83
2021/12/31 04:43:34;;;;;;;4.20;0.85;;;30.20;48.50;;;;;;5075968;28;20199;-78
2021/12/31 04:46:01;;;;;;;4.30;1.35;;;30.00;48.80;;;;;;5075172;28;20277;-78
2021/12/31 04:48:29;;;;;;;5.60;0.95;;;29.70;48.60;;;;;;5074974;28;20658;-78
2021/12/31 04:50:56;;;;;;;4.20;1.08;;;30.00;48.60;;;;;;5074357;28;20183;-86
2021/12/31 04:53:23;;;;;;;4.00;1.10;;;30.30;48.00;;;;;;5074944;28;20254;-82
2021/12/31 04:55:51;;;;;;;4.38;1.05;;;30.80;46.60;;;;;;5074136;28;20171;-84
2021/12/31 04:58:19;;;;;;;5.78;1.05;;;30.80;46.60;;;;;;5072943;28;20206;-78
2021/12/31 05:00:49;;;;;;;3.30;0.80;;;30.00;46.90;;;;;;5070238;28;20175;-83
2021/12/31 05:03:16;;;;;;;4.30;0.82;;;30.30;45.60;;;;;;5074659;28;20280;-81
2021/12/31 05:05:44;;;;;;;3.33;0.77;;;30.10;45.20;;;;;;5071169;28;20201;-82
2021/12/31 05:08:11;;;;;;;3.25;0.73;;;30.10;46.20;;;;;;5073858;28;20632;-79
2021/12/31 05:10:38;;;;;;;9.55;3.13;;;30.20;46.10;;;;;;5074062;28;20183;-81
2021/12/31 05:13:14;;;;;;;8.93;4.75;;;30.80;45.30;;;;;;5070025;28;20182;-81
2021/12/31 05:15:46;;;;;;;4.53;1.15;;;30.80;45.40;;;;;;5070103;28;20205;-82
2021/12/31 05:18:14;;;;;;;10.73;1.30;;;30.80;45.70;;;;;;5074090;28;20183;-84
2021/12/31 05:20:42;;;;;;;8.73;1.23;;;31.00;46.00;;;;;;5065146;28;20585;-79
2021/12/31 05:23:10;;;;;;;4.97;0.93;;;30.90;45.50;;;;;;5070430;28;20175;-77
2021/12/31 05:25:37;;;;;;;8.27;1.17;;;30.30;47.00;;;;;;5068885;28;20199;-82
2021/12/31 05:28:07;;;;;;;6.05;1.42;;;30.80;46.70;;;;;;5069647;28;20180;-79
2021/12/31 05:30:35;;;;;;;4.43;1.02;;;30.40;47.20;;;;;;5070878;28;20184;-82
2021/12/31 05:33:02;;;;;;;5.85;1.10;;;30.60;46.70;;;;;;5066133;28;20176;-79
2021/12/31 05:35:33;;;;;;;8.45;1.17;;;30.30;46.20;;;;;;5071251;28;20187;-83
2021/12/31 05:38:00;;;;;;;4.43;1.08;;;30.20;46.60;;;;;;5068984;28;20222;-77
2021/12/31 05:40:27;;;;;;;5.30;1.00;;;30.10;47.10;;;;;;5069159;28;20183;-81
2021/12/31 05:43:01;;;;;;;6.80;1.02;;;30.30;46.30;;;;;;5062573;28;20537;-78
2021/12/31 05:45:35;;;;;;;2.25;0.98;;;30.10;47.10;;;;;;5068162;28;20721;-79
2021/12/31 05:48:02;;;;;;;4.10;1.02;;;30.00;48.30;;;;;;5070498;28;20190;-82
2021/12/31 05:50:29;;;;;;;8.77;1.27;;;30.00;49.00;;;;;;5065181;28;20210;-81
2021/12/31 05:52:58;;;;;;;5.47;1.25;;;30.20;48.50;;;;;;5067761;28;20187;-79
2021/12/31 05:55:30;;;;;;;4.90;1.48;;;30.80;47.70;;;;;;5066101;28;20179;-80
2021/12/31 05:57:58;;;;;;;5.55;1.50;;;29.70;50.10;;;;;;5067282;28;20183;-77
2021/12/31 06:00:26;;;;;;;6.47;1.20;;;30.40;48.40;;;;;;5067572;28;20179;-82
2021/12/31 06:02:54;;;;;;;4.50;1.20;;;30.20;48.60;;;;;;5066252;28;20653;-79
2021/12/31 06:05:23;;;;;;;4.85;1.45;;;30.40;47.70;;;;;;5065873;28;20294;-76
2021/12/31 06:07:50;;;;;;;5.57;1.33;;;30.60;47.00;;;;;;5063273;28;20180;-77
2021/12/31 06:10:18;;;;;;;3.28;1.15;;;29.90;48.10;;;;;;5065810;28;20650;-80
2021/12/31 06:12:45;;;;;;;4.50;1.25;;;29.90;48.60;;;;;;5063541;28;20679;-77
2021/12/31 06:15:16;;;;;;;6.15;1.27;;;30.00;49.20;;;;;;5068013;28;20191;-79
2021/12/31 06:17:43;;;;;;;7.10;1.25;;;30.40;48.50;;;;;;5064357;28;20637;-79
2021/12/31 06:20:11;;;;;;;3.97;1.05;;;29.70;49.20;;;;;;5064418;28;20180;-76
2021/12/31 06:22:39;;;;;;;10.80;1.35;;;29.70;49.50;;;;;;5068229;28;20606;-77
2021/12/31 06:25:07;;;;;;;4.78;1.38;;;30.00;49.10;;;;;;5064631;28;20235;-75
2021/12/31 06:27:34;;;;;;;4.82;1.40;;;30.30;48.40;;;;;;5062098;28;20654;-76
2021/12/31 06:30:06;;;;;;;8.98;1.35;;;30.70;48.10;;;;;;5067555;28;20191;-77
2021/12/31 06:32:33;;;;;;;5.18;1.27;;;30.40;48.50;;;;;;5078206;28;20182;-80
2021/12/31 06:35:00;;;;;;;6.95;1.40;;;29.60;49.00;;;;;;5076317;28;20168;-80
2021/12/31 06:37:28;;;;;;;11.43;1.67;;;29.70;49.60;;;;;;5072122;28;20280;-77
2021/12/31 06:39:55;;;;;;;5.10;1.08;;;29.80;49.20;;;;;;5072656;28;20179;-77
2021/12/31 06:42:25;;;;;;;4.78;1.40;;;29.50;50.20;;;;;;5072661;28;20214;-83
2021/12/31 06:44:53;;;;;;;7.57;1.30;;;29.80;49.30;;;;;;5072782;28;20222;-76
2021/12/31 06:47:20;;;;;;;8.40;0.98;;;30.30;48.70;;;;;;5072347;28;20175;-76
2021/12/31 06:49:47;;;;;;;4.95;1.20;;;29.80;49.00;;;;;;5072345;28;20232;-80
2021/12/31 06:52:15;;;;;;;5.45;1.30;;;29.50;50.60;;;;;;5072324;28;20512;-80
2021/12/31 06:54:42;;;;;;;6.60;1.35;;;29.60;51.20;;;;;;5071938;28;20274;-82
2021/12/31 06:57:09;;;;;;;3.20;0.93;;;29.90;50.30;;;;;;5069501;28;20202;-79
2021/12/31 06:59:37;;;;;;;6.97;1.40;;;29.40;50.40;;;;;;5072146;28;20217;-75
2021/12/31 07:02:04;;;;;;;7.57;1.20;;;29.90;49.50;;;;;;5070700;28;20682;-79
2021/12/31 07:04:35;;;;;;;7.40;1.23;;;29.90;49.00;;;;;;5072111;28;20570;-78
2021/12/31 07:07:02;;;;;;;6.18;1.55;;;29.30;50.10;;;;;;5070947;28;20190;-81
2021/12/31 07:09:30;;;;;;;10.35;1.42;;;28.80;50.80;;;;;;5072293;28;20209;-77
2021/12/31 07:11:58;;;;;;;7.18;1.40;;;28.90;51.60;;;;;;5072542;28;20183;-82
2021/12/31 07:14:25;;;;;;;4.97;1.35;;;29.10;51.70;;;;;;5072046;28;20175;-78
2021/12/31 07:16:52;;;;;;;5.87;1.50;;;29.30;51.40;;;;;;5071999;28;20550;-82
2021/12/31 07:19:20;;;;;;;7.97;1.33;;;28.50;52.70;;;;;;5072126;28;20254;-81
2021/12/31 07:21:47;;;;;;;8.05;1.55;;;28.40;53.90;;;;;;5070469;28;20175;-77
2021/12/31 07:24:14;;;;;;;7.73;1.93;;;28.80;53.20;;;;;;5072167;28;20669;-78
2021/12/31 07:26:42;;;;;;;6.72;1.52;;;28.20;53.70;;;;;;5068873;28;20229;-79
2021/12/31 07:29:09;;;;;;;4.63;1.20;;;27.50;54.70;;;;;;5072328;28;20179;-79
2021/12/31 07:31:36;;;;;;;6.27;1.20;;;27.00;54.30;;;;;;5075542;28;20696;-81
2021/12/31 07:34:04;;;;;;;5.60;1.70;;;26.70;55.10;;;;;;5076703;28;20187;-80
2021/12/31 07:36:31;;;;;;;7.07;1.13;;;26.50;56.80;;;;;;5073040;28;20538;-76
2021/12/31 07:39:03;;;;;;;4.77;1.00;;;26.60;57.40;;;;;;5070563;28;20691;-78
2021/12/31 07:41:31;;;;;;;5.83;1.27;;;26.30;57.20;;;;;;5076118;28;20211;-77
2021/12/31 07:43:58;;;;;;;7.00;1.40;;;26.10;57.50;;;;;;5076237;28;20237;-75
2021/12/31 07:46:26;;;;;;;7.67;1.37;;;26.00;58.00;;;;;;5068279;28;20617;-79
2021/12/31 07:48:53;;;;;;;9.53;2.00;;;25.90;58.30;;;;;;5076382;28;20191;-76
2021/12/31 07:51:21;;;;;;;4.10;1.13;;;25.90;59.00;;;;;;5076229;28;20232;-79
2021/12/31 07:53:51;;;;;;;6.97;1.30;;;25.90;59.50;;;;;;5075660;28;20190;-80
2021/12/31 07:56:19;;;;;;;4.67;1.47;;;26.00;59.40;;;;;;5072804;28;20187;-77
2021/12/31 07:58:48;;;;;;;6.47;1.50;;;25.90;59.60;;;;;;5076036;28;20183;-78
2021/12/31 08:01:16;;;;;;;9.20;2.13;;;25.80;60.20;;;;;;5075559;28;20182;-77
2021/12/31 08:03:44;;;;;;;7.13;2.07;;;25.60;60.00;;;;;;5075416;28;20664;-76
2021/12/31 08:06:11;;;;;;;9.87;2.20;;;25.40;60.60;;;;;;5075131;28;20557;-77
2021/12/31 08:08:39;;;;;;;8.07;1.73;;;25.40;61.00;;;;;;5075042;28;20191;-80
2021/12/31 08:11:07;;;;;;;7.33;1.97;;;25.30;61.70;;;;;;5075034;28;20266;-83
2021/12/31 08:13:34;;;;;;;9.43;1.40;;;25.30;62.20;;;;;;5075670;28;20183;-77
2021/12/31 08:16:01;;;;;;;11.23;1.40;;;25.20;62.70;;;;;;5075414;28;20187;-75
2021/12/31 08:18:29;;;;;;;9.70;3.47;;;25.00;63.40;;;;;;5075325;28;20175;-78
2021/12/31 08:20:56;;;;;;;8.07;3.77;;;25.00;63.60;;;;;;5075044;28;20191;-74
2021/12/31 08:23:23;;;;;;;9.03;1.63;;;24.80;63.40;;;;;;5073931;28;20247;-85
2021/12/31 08:25:51;;;;;;;8.10;1.70;;;24.80;63.70;;;;;;5075087;28;20672;-76
2021/12/31 08:28:18;;;;;;;17.00;1.97;;;24.70;63.50;;;;;;5072538;28;20660;-81
2021/12/31 08:30:46;;;;;;;7.73;1.80;;;24.60;64.10;;;;;;5067629;28;20210;-76
2021/12/31 08:33:13;;;;;;;9.40;1.80;;;24.70;64.50;;;;;;5074977;28;20171;-78
2021/12/31 08:35:41;;;;;;;9.27;1.70;;;24.60;64.70;;;;;;5074884;28;20179;-79
2021/12/31 08:38:08;;;;;;;10.50;4.07;;;24.70;64.90;;;;;;5074836;28;20215;-79
2021/12/31 08:40:36;;;;;;;25.40;4.00;;;24.60;65.60;;;;;;5074703;28;20191;-75
2021/12/31 08:43:03;;;;;;;10.13;1.90;;;24.50;65.90;;;;;;5075022;28;20194;-78
2021/12/31 08:45:32;;;;;;;7.80;1.43;;;24.50;65.70;;;;;;5074856;28;20241;-77
2021/12/31 08:48:00;;;;;;;9.47;1.73;;;24.40;65.80;;;;;;5074957;28;20274;-80
2021/12/31 08:50:27;;;;;;;6.90;1.70;;;24.40;66.10;;;;;;5073449;28;20606;-75
2021/12/31 08:52:55;;;;;;;12.03;2.53;;;24.30;66.00;;;;;;5074433;28;20198;-75
2021/12/31 08:55:22;;;;;;;10.97;1.87;;;24.30;66.50;;;;;;5074502;28;20575;-75
2021/12/31 08:57:50;;;;;;;8.00;1.90;;;24.30;67.00;;;;;;5074536;28;20187;-79
2021/12/31 09:00:18;;;;;;;8.00;1.90;;;24.20;66.90;;;;;;5074298;28;20183;-76
2021/12/31 09:02:48;;;;;;;11.37;2.27;;;24.10;67.00;;;;;;5067015;28;20664;-80
2021/12/31 09:05:16;;;;;;;14.07;1.80;;;24.00;67.20;;;;;;5073637;28;20223;-81
2021/12/31 09:07:43;;;;;;;9.90;1.43;;;24.00;67.40;;;;;;5073968;28;20198;-77
2021/12/31 09:10:11;;;;;;;4.50;1.47;;;24.00;67.30;;;;;;5074049;28;20201;-78
2021/12/31 09:12:39;;;;;;;11.87;1.93;;;23.90;66.60;;;;;;5074182;28;20179;-75
2021/12/31 09:15:07;;;;;;;11.73;2.07;;;23.90;66.90;;;;;;5074051;28;20653;-79
2021/12/31 09:17:35;;;;;;;8.70;2.07;;;23.80;67.10;;;;;;5074064;28;20191;-77
2021/12/31 09:20:06;;;;;;;8.60;1.80;;;23.80;66.60;;;;;;5071690;28;20180;-75
2021/12/31 09:22:33;;;;;;;9.47;1.70;;;23.80;66.70;;;;;;5073906;28;20195;-73
2021/12/31 09:25:01;;;;;;;7.13;1.27;;;23.80;66.90;;;;;;5073617;28;20214;-74
2021/12/31 09:27:29;;;;;;;11.03;1.90;;;23.80;67.30;;;;;;5074109;28;20191;-74
2021/12/31 09:29:57;;;;;;;6.50;1.63;;;23.80;67.70;;;;;;5073843;28;20187;-74
2021/12/31 09:32:24;;;;;;;9.57;2.20;;;23.70;67.40;;;;;;5073260;28;20175;-78
2021/12/31 09:34:52;;;;;;;7.73;1.50;;;23.70;67.40;;;;;;5073688;28;20182;-73
2021/12/31 09:37:19;;;;;;;10.70;1.93;;;23.70;67.10;;;;;;5071831;28;20230;-76
2021/12/31 09:39:47;;;;;;;9.77;1.73;;;23.70;66.90;;;;;;5073496;28;20680;-73
2021/12/31 09:42:14;;;;;;;11.87;2.13;;;23.70;67.30;;;;;;5073465;28;20545;-75
2021/12/31 09:44:44;;;;;;;8.93;1.67;;;23.70;67.40;;;;;;5072789;28;20612;-73
2021/12/31 09:47:13;;;;;;;6.20;1.30;;;23.70;67.40;;;;;;5063714;28;20188;-72
2021/12/31 09:49:41;;;;;;;9.27;1.83;;;23.70;67.90;;;;;;5073179;28;20233;-73
2021/12/31 09:52:10;;;;;;;10.93;2.63;;;23.70;67.60;;;;;;5072821;28;20219;-71
2021/12/31 09:54:44;;;;;;;15.20;2.67;;;23.70;67.80;;;;;;5072551;28;20210;-71
2021/12/31 09:57:16;;;;;;;6.83;1.63;;;23.60;68.30;;;;;;5069974;28;20179;-72
2021/12/31 09:59:45;;;;;;;11.50;1.67;;;23.60;68.60;;;;;;5073196;28;20244;-73
2021/12/31 10:02:15;;;;;;;7.83;1.83;;;23.60;68.30;;;;;;5071959;28;20538;-73
2021/12/31 10:04:56;;;;;;;9.00;2.10;;;23.60;68.70;;;;;;5072820;28;20222;-73
2021/12/31 10:07:26;;;;;;;16.93;6.37;;;23.60;68.90;;;;;;5073020;28;20236;-73
2021/12/31 10:10:25;;;;;;;45.57;34.60;;;23.50;69.20;;;;;;5072968;28;20187;-74
2021/12/31 10:12:58;;;;;;;69.47;51.93;;;23.50;69.60;;;;;;5062148;28;20217;-75
2021/12/31 10:15:26;;;;;;;57.67;42.60;;;23.50;69.90;;;;;;5072548;28;20190;-73
2021/12/31 10:17:54;;;;;;;54.47;38.17;;;23.50;70.00;;;;;;5073062;28;20183;-73
2021/12/31 10:20:23;;;;;;;29.37;19.73;;;23.50;70.30;;;;;;5066728;28;20176;-74
2021/12/31 10:23:10;;;;;;;17.17;8.20;;;23.40;70.20;;;;;;5072389;28;20182;-74
2021/12/31 10:25:39;;;;;;;12.20;4.00;;;23.40;69.70;;;;;;5072210;28;20695;-75
2021/12/31 10:28:15;;;;;;;13.40;3.93;;;23.40;69.30;;;;;;5069591;28;20194;-73
2021/12/31 10:30:43;;;;;;;6.17;1.77;;;23.40;69.40;;;;;;5071651;28;20641;-73
2021/12/31 10:33:11;;;;;;;9.43;1.73;;;23.40;69.20;;;;;;5072220;28;20228;-76
2021/12/31 10:35:46;;;;;;;9.67;1.90;;;23.50;69.40;;;;;;5072362;28;20191;-73
2021/12/31 10:38:14;;;;;;;11.77;1.67;;;23.50;69.70;;;;;;5072209;28;20211;-74
2021/12/31 10:40:43;;;;;;;9.57;2.20;;;23.40;70.10;;;;;;5072037;28;20175;-74
2021/12/31 10:43:17;;;;;;;12.93;2.10;;;23.40;70.40;;;;;;5072235;28;20186;-74
2021/12/31 10:45:59;;;;;;;9.43;1.97;;;23.30;70.60;;;;;;5064906;28;20185;-75
2021/12/31 10:48:44;;;;;;;16.10;2.57;;;23.40;71.20;;;;;;5072276;28;20175;-73
2021/12/31 10:51:14;;;;;;;21.77;9.07;;;23.30;71.60;;;;;;5072063;28;20251;-74
2021/12/31 10:53:49;;;;;;;54.43;29.57;;;23.40;72.00;;;;;;5071749;28;20215;-76
2021/12/31 10:56:17;;;;;;;22.33;4.03;;;23.40;72.10;;;;;;5069387;28;20195;-74
2021/12/31 10:58:46;;;;;;;21.40;7.37;;;23.30;72.30;;;;;;5064825;28;20179;-75
2021/12/31 11:01:15;;;;;;;35.53;16.93;;;23.40;72.20;;;;;;5071889;28;20182;-81
2021/12/31 11:03:43;;;;;;;19.43;9.40;;;23.30;72.50;;;;;;5071756;28;20606;-75
2021/12/31 11:06:13;;;;;;;11.27;4.77;;;23.30;72.70;;;;;;5071630;28;20493;-74
2021/12/31 11:08:49;;;;;;;16.83;10.23;;;23.30;73.00;;;;;;5071987;28;20191;-74
2021/12/31 11:11:20;;;;;;;15.10;6.03;;;23.30;73.20;;;;;;5071839;28;20703;-74
2021/12/31 11:13:49;;;;;;;16.87;7.70;;;23.30;73.30;;;;;;5064888;28;20183;-75
2021/12/31 11:16:16;;;;;;;25.43;16.87;;;23.30;72.90;;;;;;5070626;28;20518;-74
2021/12/31 11:18:45;;;;;;;15.13;3.93;;;23.30;72.70;;;;;;5064617;28;20715;-80
2021/12/31 11:21:13;;;;;;;60.30;33.20;;;23.30;71.70;;;;;;5071356;28;20187;-77
2021/12/31 11:23:42;;;;;;;15.83;5.97;;;23.30;71.60;;;;;;5071493;28;20198;-75
2021/12/31 11:26:14;;;;;;;16.80;3.80;;;23.30;71.00;;;;;;5069794;28;20187;-76
2021/12/31 11:28:46;;;;;;;15.97;10.83;;;23.30;70.40;;;;;;5070142;28;20211;-78
2021/12/31 11:31:19;;;;;;;41.50;22.93;;;23.30;70.60;;;;;;5071001;28;20205;-82
2021/12/31 11:34:10;;;;;;;43.70;26.30;;;23.20;70.80;;;;;;5072175;28;20671;-74
2021/12/31 11:36:52;;;;;;;13.57;2.63;;;23.20;71.20;;;;;;5071678;28;20230;-76
2021/12/31 11:39:32;;;;;;;15.63;2.87;;;23.20;71.20;;;;;;5068083;28;20201;-78
2021/12/31 11:42:02;;;;;;;11.87;2.40;;;23.30;71.10;;;;;;5071890;28;20225;-76
2021/12/31 11:44:32;;;;;;;15.27;2.63;;;23.20;71.50;;;;;;5071485;28;20225;-81
2021/12/31 11:47:17;;;;;;;11.77;2.53;;;23.10;71.30;;;;;;5068159;28;20400;-76
2021/12/31 11:49:46;;;;;;;9.50;1.80;;;23.20;71.20;;;;;;5063868;28;20214;-74
2021/12/31 11:52:23;;;;;;;15.20;2.10;;;23.20;71.30;;;;;;5062774;28;20634;-74
2021/12/31 11:55:18;;;;;;;12.73;1.90;;;23.10;71.10;;;;;;5069918;28;20195;-77
2021/12/31 11:57:45;;;;;;;11.37;3.70;;;23.10;70.30;;;;;;5062197;28;20222;-73
2021/12/31 12:00:27;;;;;;;10.73;3.20;;;23.20;70.40;;;;;;5071311;28;20610;-76
2021/12/31 12:02:55;;;;;;;8.93;2.73;;;23.20;70.20;;;;;;5065587;28;20179;-77
2021/12/31 12:05:26;;;;;;;12.13;2.30;;;23.10;70.00;;;;;;5071522;28;20218;-75
2021/12/31 12:07:54;;;;;;;9.77;2.30;;;23.20;69.50;;;;;;5066052;28;20180;-74
2021/12/31 12:10:27;;;;;;;18.03;3.13;;;23.20;70.30;;;;;;5057579;28;20180;-78
2021/12/31 12:12:57;;;;;;;12.90;2.80;;;23.10;70.40;;;;;;5063033;28;20198;-73
2021/12/31 12:15:29;;;;;;;12.77;1.80;;;23.10;70.40;;;;;;5069105;28;20650;-75
2021/12/31 12:17:58;;;;;;;12.40;2.60;;;23.10;70.70;;;;;;5069265;28;20653;-73
2021/12/31 12:20:34;;;;;;;13.87;2.27;;;23.00;71.10;;;;;;5074976;28;20594;-73
2021/12/31 12:23:02;;;;;;;9.90;2.40;;;23.00;71.50;;;;;;5064067;28;20205;-72
2021/12/31 12:25:33;;;;;;;12.80;2.10;;;23.10;71.00;;;;;;5074048;28;20242;-76
2021/12/31 12:28:10;;;;;;;14.13;1.83;;;23.10;71.00;;;;;;5074728;28;20194;-77
2021/12/31 12:30:46;;;;;;;9.00;1.93;;;23.10;70.90;;;;;;5061286;28;20217;-72
2021/12/31 12:33:19;;;;;;;9.00;1.70;;;23.00;70.50;;;;;;5073450;28;20678;-76
2021/12/31 12:35:52;;;;;;;11.47;1.73;;;23.00;70.00;;;;;;5067201;28;20792;-77
2021/12/31 12:38:30;;;;;;;9.97;1.77;;;23.00;69.60;;;;;;5069465;28;20713;-74
2021/12/31 12:40:59;;;;;;;11.70;2.00;;;23.00;69.50;;;;;;5062725;28;20179;-73
2021/12/31 12:43:45;;;;;;;12.77;2.20;;;23.00;69.70;;;;;;5071347;28;20573;-80
2021/12/31 12:46:16;;;;;;;10.47;1.80;;;23.00;70.00;;;;;;5099012;28;20554;-74
2021/12/31 12:48:57;;;;;;;9.40;1.53;;;22.90;70.20;;;;;;5063161;28;20182;-73
2021/12/31 12:51:30;;;;;;;11.33;2.00;;;22.90;70.40;;;;;;5062400;28;20191;-73
2021/12/31 12:54:02;;;;;;;10.37;2.00;;;22.90;70.50;;;;;;5070779;28;20578;-74
2021/12/31 12:56:30;;;;;;;13.00;1.90;;;22.80;70.80;;;;;;5064045;28;20238;-72
2021/12/31 12:59:03;;;;;;;13.97;2.07;;;22.80;70.70;;;;;;5062109;28;20175;-73